createdAt,value
2019-04-21T00:02:26.488Z,70.30
2019-04-21T00:05:10.861Z,71.80
2019-04-21T00:07:36.184Z,72.80
2019-04-21T00:10:09.115Z,72.50
2019-04-21T00:12:28.491Z,71.70
2019-04-21T00:14:49.704Z,71.20
2019-04-21T00:17:12.989Z,72.40
2019-04-21T00:19:39.593Z,72.50
2019-04-21T00:22:19.280Z,72.20
2019-04-21T00:24:48.794Z,71.70
2019-04-21T00:27:21.420Z,71.60
2019-04-21T00:29:47.825Z,71.40
2019-04-21T00:32:13.575Z,71.40
2019-04-21T00:34:28.145Z,71.00
2019-04-21T00:37:08.310Z,70.80
2019-04-21T00:39:48.998Z,70.60
2019-04-21T00:42:11.308Z,70.20
2019-04-21T00:44:30.822Z,69.90
2019-04-21T00:47:04.149Z,69.70
2019-04-21T00:49:27.049Z,70.00
2019-04-21T00:52:24.355Z,69.00
2019-04-21T00:54:41.528Z,69.50
2019-04-21T00:57:14.620Z,69.30
2019-04-21T00:59:37.088Z,69.60
2019-04-21T01:01:59.696Z,70.00
2019-04-21T01:04:32.847Z,69.40
2019-04-21T01:07:05.306Z,69.50
2019-04-21T01:09:23.679Z,69.70
2019-04-21T01:11:55.291Z,69.60
2019-04-21T01:14:32.948Z,70.60
2019-04-21T01:16:57.720Z,70.10
2019-04-21T01:19:17.323Z,70.40
2019-04-21T01:21:28.624Z,69.20
2019-04-21T01:24:02.994Z,70.10
2019-04-21T01:26:32.828Z,69.40
2019-04-21T01:29:05.437Z,70.00
2019-04-21T01:31:36.678Z,69.60
2019-04-21T01:34:08.873Z,70.10
2019-04-21T01:36:34.675Z,69.90
2019-04-21T01:39:07.821Z,69.90
2019-04-21T01:41:35.105Z,70.10
2019-04-21T01:43:56.894Z,70.00
2019-04-21T01:46:25.665Z,70.00
2019-04-21T01:48:49.428Z,69.70
2019-04-21T01:51:22.523Z,70.10
2019-04-21T01:53:59.537Z,70.10
2019-04-21T01:56:24.722Z,70.00
2019-04-21T01:58:42.551Z,70.00
2019-04-21T02:01:19.365Z,70.30
2019-04-21T02:03:53.212Z,70.20
2019-04-21T02:06:22.194Z,70.00
2019-04-21T02:08:41.779Z,69.80
2019-04-21T02:11:18.876Z,70.00
2019-04-21T02:13:48.957Z,69.90
2019-04-21T02:16:11.410Z,70.30
2019-04-21T02:18:39.102Z,70.30
2019-04-21T02:20:55.409Z,70.40
2019-04-21T02:23:44.008Z,70.70
2019-04-21T02:26:03.334Z,70.40
2019-04-21T02:28:38.418Z,71.10
2019-04-21T02:38:39.157Z,69.60
2019-04-21T02:40:57.278Z,70.10
2019-04-21T02:43:24.868Z,69.80
2019-04-21T02:48:43.605Z,70.00
2019-04-21T02:51:12.592Z,68.60
2019-04-21T02:53:37.387Z,69.70
2019-04-21T02:55:58.695Z,69.80
2019-04-21T02:58:25.060Z,70.40
2019-04-21T03:03:29.770Z,70.70
2019-04-21T03:05:53.832Z,70.90
2019-04-21T03:08:29.996Z,70.10
2019-04-21T03:13:21.608Z,70.50
2019-04-21T03:20:42.443Z,69.40
2019-04-21T03:25:41.745Z,69.10
2019-04-21T03:28:06.426Z,69.40
2019-04-21T03:33:41.056Z,68.60
2019-04-21T03:35:58.221Z,68.30
2019-04-21T03:38:13.795Z,68.60
2019-04-21T03:40:18.670Z,68.20
2019-04-21T03:45:39.148Z,67.90
2019-04-21T03:47:55.253Z,68.20
2019-04-21T03:50:29.751Z,67.70
2019-04-21T03:52:55.083Z,67.60
2019-04-21T03:55:41.569Z,67.10
2019-04-21T04:00:36.687Z,66.90
2019-04-21T04:02:58.772Z,67.10
2019-04-21T04:05:21.474Z,66.80
2019-04-21T04:12:40.749Z,66.60
2019-04-21T04:15:12.082Z,66.90
2019-04-21T04:17:40.825Z,67.00
2019-04-21T04:20:04.031Z,66.90
2019-04-21T04:29:59.275Z,67.10
2019-04-21T04:32:29.250Z,68.10
2019-04-21T04:34:57.334Z,68.50
2019-04-21T04:37:32.077Z,68.60
2019-04-21T04:40:14.562Z,68.90
2019-04-21T04:42:29.922Z,68.50
2019-04-21T04:45:09.635Z,68.50
2019-04-21T04:47:16.689Z,68.30
2019-04-21T04:52:31.225Z,69.60
2019-04-21T04:57:16.419Z,68.80
2019-04-21T04:59:42.495Z,69.10
2019-04-21T05:04:50.032Z,68.40
2019-04-21T05:09:37.085Z,67.70
2019-04-21T05:12:01.934Z,66.90
2019-04-21T05:14:29.851Z,66.70
2019-04-21T05:19:51.640Z,66.60
2019-04-21T05:21:45.409Z,66.30
2019-04-21T05:24:12.410Z,66.70
2019-04-21T05:26:39.146Z,66.40
2019-04-21T05:29:02.077Z,66.40
2019-04-21T05:31:44.552Z,66.70
2019-04-21T05:34:12.082Z,65.90
2019-04-21T05:36:38.231Z,65.70
2019-04-21T05:39:07.199Z,65.10
2019-04-21T05:41:27.300Z,65.00
2019-04-21T05:44:03.808Z,64.30
2019-04-21T05:46:40.911Z,64.20
2019-04-21T05:49:02.909Z,64.30
2019-04-21T05:51:30.303Z,63.40
2019-04-21T05:54:10.850Z,63.60
2019-04-21T05:56:32.348Z,63.60
2019-04-21T05:58:58.124Z,63.70
2019-04-21T06:03:57.679Z,64.40
2019-04-21T06:06:27.069Z,65.00
2019-04-21T06:08:52.588Z,64.00
2019-04-21T06:13:57.545Z,64.00
2019-04-21T06:16:17.811Z,63.40
2019-04-21T06:18:48.564Z,64.20
2019-04-21T06:21:10.834Z,64.10
2019-04-21T06:23:43.579Z,65.00
2019-04-21T06:28:44.005Z,65.60
2019-04-21T06:31:18.149Z,66.20
2019-04-21T06:33:39.461Z,64.80
2019-04-21T06:38:43.384Z,64.50
2019-04-21T06:41:04.815Z,64.20
2019-04-21T06:43:37.237Z,64.00
2019-04-21T06:46:01.348Z,63.60
2019-04-21T06:48:30.157Z,63.90
2019-04-21T06:51:04.234Z,64.40
2019-04-21T06:53:29.474Z,64.50
2019-04-21T06:55:56.218Z,65.00
2019-04-21T06:58:20.850Z,65.70
2019-04-21T07:00:44.145Z,66.10
2019-04-21T07:05:54.726Z,65.20
2019-04-21T07:08:23.218Z,65.70
2019-04-21T07:10:41.585Z,64.50
2019-04-21T07:13:03.479Z,65.10
2019-04-21T07:15:40.988Z,64.90
2019-04-21T07:18:04.442Z,63.10
2019-04-21T07:20:30.764Z,62.60
2019-04-21T07:23:03.212Z,63.20
2019-04-21T07:25:29.234Z,61.50
2019-04-21T07:27:52.004Z,63.50
2019-04-21T07:30:26.523Z,62.30
2019-04-21T07:32:59.008Z,61.60
2019-04-21T07:35:31.829Z,63.20
2019-04-21T07:37:47.883Z,62.70
2019-04-21T07:40:12.391Z,63.20
2019-04-21T07:42:40.095Z,60.90
2019-04-21T07:45:05.166Z,61.00
2019-04-21T07:47:44.456Z,61.40
2019-04-21T07:50:07.386Z,62.40
2019-04-21T07:52:39.463Z,61.40
2019-04-21T07:57:31.640Z,61.20
2019-04-21T08:00:16.089Z,60.90
2019-04-21T08:02:29.170Z,59.00
2019-04-21T08:05:04.145Z,59.90
2019-04-21T08:07:32.369Z,58.80
2019-04-21T08:09:51.133Z,59.20
2019-04-21T08:12:18.313Z,58.10
2019-04-21T08:14:50.821Z,57.40
2019-04-21T08:17:16.199Z,57.10
2019-04-21T08:19:43.101Z,56.90
2019-04-21T08:22:18.645Z,57.20
2019-04-21T08:24:42.395Z,56.90
2019-04-21T08:27:14.164Z,57.10
2019-04-21T08:29:39.407Z,57.70
2019-04-21T08:32:28.091Z,56.60
2019-04-21T08:34:35.811Z,55.90
2019-04-21T08:37:02.696Z,57.30
2019-04-21T08:39:34.419Z,58.60
2019-04-21T08:41:55.954Z,57.30
2019-04-21T08:44:33.634Z,58.10
2019-04-21T08:47:00.225Z,59.10
2019-04-21T08:49:22.160Z,58.50
2019-04-21T08:51:55.894Z,57.60
2019-04-21T08:54:23.537Z,58.50
2019-04-21T08:56:48.318Z,57.30
2019-04-21T08:59:26.766Z,57.40
2019-04-21T09:01:48.861Z,55.50
2019-04-21T09:04:19.927Z,56.00
2019-04-21T09:06:58.678Z,54.20
2019-04-21T09:09:16.757Z,53.70
2019-04-21T09:11:40.469Z,52.30
2019-04-21T09:14:13.768Z,53.90
2019-04-21T09:16:36.739Z,51.40
2019-04-21T09:18:56.950Z,52.00
2019-04-21T09:21:42.294Z,51.90
2019-04-21T09:24:09.373Z,52.30
2019-04-21T09:26:31.126Z,52.70
2019-04-21T09:28:54.496Z,53.70
2019-04-21T09:31:08.958Z,53.00
2019-04-21T09:33:41.265Z,53.10
2019-04-21T09:36:07.033Z,53.50
2019-04-21T09:38:37.036Z,53.80
2019-04-21T09:41:00.500Z,54.20
2019-04-21T09:43:35.731Z,55.40
2019-04-21T09:45:54.846Z,56.10
2019-04-21T09:48:24.235Z,55.10
2019-04-21T09:50:50.336Z,56.10
2019-04-21T09:53:24.994Z,58.60
2019-04-21T09:55:53.569Z,58.10
2019-04-21T09:58:23.997Z,57.90
2019-04-21T10:00:52.438Z,58.80
2019-04-21T10:03:13.925Z,59.00
2019-04-21T10:05:39.209Z,59.20
2019-04-21T10:08:06.083Z,59.20
2019-04-21T10:10:32.288Z,59.10
2019-04-21T10:12:58.487Z,60.00
2019-04-21T10:15:26.511Z,60.80
2019-04-21T10:17:55.976Z,60.80
2019-04-21T10:20:22.420Z,60.80
2019-04-21T10:22:49.139Z,60.70
2019-04-21T10:25:16.542Z,59.60
2019-04-21T10:27:43.440Z,59.80
2019-04-21T10:30:09.997Z,59.90
2019-04-21T10:32:36.458Z,61.20
2019-04-21T10:35:05.501Z,60.90
2019-04-21T10:37:44.138Z,60.20
2019-04-21T10:40:00.113Z,59.60
2019-04-21T10:42:26.981Z,60.70
2019-04-21T10:44:54.734Z,61.20
2019-04-21T10:47:22.691Z,63.00
2019-04-21T10:49:49.105Z,62.00
2019-04-21T10:52:17.349Z,62.60
2019-04-21T10:55:07.280Z,62.80
2019-04-21T10:57:14.455Z,64.00
2019-04-21T10:59:46.194Z,62.60
2019-04-21T11:02:10.968Z,62.40
2019-04-21T11:04:39.082Z,63.90
2019-04-21T11:07:11.366Z,64.40
2019-04-21T11:09:36.087Z,64.50
2019-04-21T11:12:03.978Z,63.80
2019-04-21T11:14:31.495Z,62.80
2019-04-21T11:16:58.555Z,63.20
2019-04-21T11:19:25.042Z,60.80
2019-04-21T11:21:52.467Z,61.20
2019-04-21T11:24:18.875Z,62.00
2019-04-21T11:26:45.539Z,62.70
2019-04-21T11:29:12.819Z,62.40
2019-04-21T11:31:39.112Z,61.40
2019-04-21T11:34:05.318Z,60.70
2019-04-21T11:36:31.551Z,60.90
2019-04-21T11:39:16.820Z,60.80
2019-04-21T11:41:27.907Z,60.20
2019-04-21T11:43:55.020Z,59.20
2019-04-21T11:46:22.522Z,60.40
2019-04-21T11:48:50.309Z,60.20
2019-04-21T11:51:17.170Z,59.40
2019-04-21T11:53:43.476Z,59.40
2019-04-21T11:56:09.778Z,60.40
2019-04-21T11:58:36.110Z,60.10
2019-04-21T12:01:05.583Z,59.80
2019-04-21T12:03:33.489Z,60.00
2019-04-21T12:05:59.928Z,60.60
2019-04-21T12:08:34.344Z,60.80
2019-04-21T12:10:55.453Z,61.70
2019-04-21T12:13:22.358Z,62.40
2019-04-21T12:15:49.188Z,62.20
2019-04-21T12:18:15.601Z,61.20
2019-04-21T12:20:43.046Z,62.40
2019-04-21T12:23:09.347Z,62.60
2019-04-21T12:25:38.933Z,61.00
2019-04-21T12:28:05.855Z,59.80
2019-04-21T12:30:33.281Z,60.30
2019-04-21T12:33:02.413Z,60.20
2019-04-21T12:35:29.784Z,59.90
2019-04-21T12:37:56.380Z,61.20
2019-04-21T12:40:22.766Z,61.00
2019-04-21T12:42:49.007Z,60.00
2019-04-21T12:45:17.423Z,59.80
2019-04-21T12:47:44.054Z,59.40
2019-04-21T12:50:10.970Z,59.40
2019-04-21T12:52:37.807Z,59.30
2019-04-21T12:55:05.727Z,59.00
2019-04-21T12:57:33.235Z,59.40
2019-04-21T13:00:00.488Z,58.60
2019-04-21T13:02:27.446Z,59.00
2019-04-21T13:04:54.617Z,59.20
2019-04-21T13:07:21.755Z,58.30
2019-04-21T13:09:48.474Z,58.80
2019-04-21T13:12:15.236Z,57.90
2019-04-21T13:14:42.120Z,59.00
2019-04-21T13:17:09.754Z,58.30
2019-04-21T13:19:36.305Z,57.80
2019-04-21T13:22:03.855Z,57.70
2019-04-21T13:24:31.703Z,58.00
2019-04-21T13:27:00.228Z,57.00
2019-04-21T13:29:26.309Z,57.30
2019-04-21T13:31:52.458Z,56.80
2019-04-21T13:34:19.921Z,56.20
2019-04-21T13:36:47.575Z,57.30
2019-04-21T13:39:48.820Z,58.30
2019-04-21T13:41:56.717Z,57.00
2019-04-21T13:44:15.354Z,57.40
2019-04-21T13:46:42.981Z,56.10
2019-04-21T13:49:09.749Z,56.40
2019-04-21T13:51:36.140Z,57.00
2019-04-21T13:54:04.046Z,55.60
2019-04-21T13:56:30.364Z,55.50
2019-04-21T13:58:58.107Z,55.70
2019-04-21T14:01:25.601Z,54.30
2019-04-21T14:03:53.568Z,55.20
2019-04-21T14:06:20.379Z,54.50
2019-04-21T14:08:48.614Z,56.20
2019-04-21T14:11:15.576Z,53.90
2019-04-21T14:13:42.587Z,54.70
2019-04-21T14:16:09.684Z,54.60
2019-04-21T14:18:36.578Z,54.90
2019-04-21T14:21:03.168Z,54.40
2019-04-21T14:23:36.262Z,54.90
2019-04-21T14:25:57.594Z,54.50
2019-04-21T14:28:24.066Z,54.90
2019-04-21T14:30:50.572Z,54.80
2019-04-21T14:33:18.188Z,54.70
2019-04-21T14:35:45.083Z,54.50
2019-04-21T14:38:11.403Z,54.10
2019-04-21T14:40:38.828Z,53.60
2019-04-21T14:43:05.918Z,53.30
2019-04-21T14:45:34.636Z,52.60
2019-04-21T14:48:03.271Z,52.30
2019-04-21T14:50:32.469Z,52.30
2019-04-21T14:53:03.170Z,51.30
2019-04-21T14:55:31.168Z,51.60
2019-04-21T14:57:58.985Z,51.50
2019-04-21T15:00:29.323Z,50.10
2019-04-21T15:02:55.913Z,51.00
2019-04-21T15:05:25.106Z,52.60
2019-04-21T15:07:51.560Z,52.30
2019-04-21T15:10:22.268Z,51.80
2019-04-21T15:12:45.792Z,51.60
2019-04-21T15:15:12.010Z,51.00
2019-04-21T15:17:38.231Z,52.40
2019-04-21T15:20:11.131Z,52.60
2019-04-21T15:22:34.639Z,51.50
2019-04-21T15:25:00.871Z,51.10
2019-04-21T15:27:27.536Z,50.60
2019-04-21T15:29:53.876Z,51.60
2019-04-21T15:32:20.107Z,50.70
2019-04-21T15:34:46.316Z,50.10
2019-04-21T15:37:13.722Z,52.20
2019-04-21T15:39:40.477Z,52.50
2019-04-21T15:42:06.772Z,51.70
2019-04-21T15:44:34.530Z,50.20
2019-04-21T15:47:02.016Z,51.10
2019-04-21T15:49:40.510Z,52.80
2019-04-21T15:51:58.305Z,54.10
2019-04-21T15:54:24.778Z,53.10
2019-04-21T15:56:53.169Z,53.20
2019-04-21T15:59:22.174Z,54.30
2019-04-21T16:01:50.730Z,57.30
2019-04-21T16:04:18.491Z,55.90
2019-04-21T16:06:47.783Z,55.70
2019-04-21T16:09:16.557Z,56.20
2019-04-21T16:11:42.194Z,56.10
2019-04-21T16:14:10.017Z,55.50
2019-04-21T16:16:36.457Z,55.70
2019-04-21T16:19:03.752Z,55.80
2019-04-21T16:21:31.631Z,56.50
2019-04-21T16:23:58.299Z,56.60
2019-04-21T16:26:24.699Z,55.40
2019-04-21T16:28:51.241Z,55.50
2019-04-21T16:31:18.488Z,56.40
2019-04-21T16:33:45.230Z,56.10
2019-04-21T16:36:13.161Z,55.70
2019-04-21T16:38:39.702Z,54.80
2019-04-21T16:41:09.146Z,55.00
2019-04-21T16:43:35.304Z,54.80
2019-04-21T16:46:01.784Z,56.00
2019-04-21T16:48:27.993Z,56.50
2019-04-21T16:50:55.322Z,56.60
2019-04-21T16:53:23.995Z,57.00
2019-04-21T16:55:53.190Z,57.80
2019-04-21T16:58:25.093Z,58.50
2019-04-21T17:00:59.512Z,58.20
2019-04-21T17:03:19.691Z,59.20
2019-04-21T17:05:45.930Z,60.00
2019-04-21T17:08:13.640Z,60.50
2019-04-21T17:10:40.405Z,62.40
2019-04-21T17:13:09.627Z,62.80
2019-04-21T17:15:58.289Z,62.10
2019-04-21T17:18:23.062Z,62.60
2019-04-21T17:20:43.013Z,63.70
2019-04-21T17:23:01.682Z,63.30
2019-04-21T17:25:29.734Z,64.20
2019-04-21T17:27:56.870Z,64.60
2019-04-21T17:30:24.238Z,65.40
2019-04-21T17:32:51.825Z,64.40
2019-04-21T17:35:19.851Z,65.40
2019-04-21T17:37:47.808Z,65.40
2019-04-21T17:40:18.064Z,64.40
2019-04-21T17:42:51.103Z,64.10
2019-04-21T17:45:13.188Z,64.00
2019-04-21T17:47:46.430Z,64.50
2019-04-21T17:50:09.498Z,65.50
2019-04-21T17:52:43.714Z,65.40
2019-04-21T17:55:16.828Z,65.70
2019-04-21T17:57:54.457Z,64.60
2019-04-21T18:00:46.270Z,64.90
2019-04-21T18:02:53.212Z,65.30
2019-04-21T18:05:22.560Z,66.10
2019-04-21T18:07:46.799Z,67.20
2019-04-21T18:10:14.224Z,70.00
2019-04-21T18:12:39.988Z,70.20
2019-04-21T18:15:13.561Z,70.60
2019-04-21T18:17:22.679Z,70.90
2019-04-21T18:19:51.320Z,71.40
2019-04-21T18:22:19.587Z,72.30
2019-04-21T18:24:57.045Z,74.00
2019-04-21T18:27:17.529Z,74.40
2019-04-21T18:29:44.441Z,74.70
2019-04-21T18:32:12.313Z,74.80
2019-04-21T18:34:52.318Z,75.40
2019-04-21T18:37:17.416Z,75.70
2019-04-21T18:39:53.679Z,75.70
2019-04-21T18:42:26.373Z,75.40
2019-04-21T18:45:22.671Z,74.50
2019-04-21T18:47:31.963Z,74.30
2019-04-21T18:49:43.706Z,73.90
2019-04-21T18:52:20.662Z,74.20
2019-04-21T18:54:54.767Z,74.10
2019-04-21T18:57:17.247Z,74.40
2019-04-21T18:59:39.608Z,75.20
2019-04-21T19:02:08.051Z,75.90
2019-04-21T19:04:33.849Z,76.30
2019-04-21T19:07:16.892Z,76.60
2019-04-21T19:10:07.229Z,75.80
2019-04-21T19:12:12.280Z,76.10
2019-04-21T19:14:40.063Z,76.90
2019-04-21T19:17:39.695Z,77.50
2019-04-21T19:19:46.744Z,77.50
2019-04-21T19:22:06.467Z,78.60
2019-04-21T19:24:33.753Z,77.80
2019-04-21T19:27:08.125Z,78.00
2019-04-21T19:29:28.814Z,79.00
2019-04-21T19:31:54.677Z,79.30
2019-04-21T19:34:14.360Z,79.40
2019-04-21T19:36:36.530Z,79.60
2019-04-21T19:39:11.334Z,79.70
2019-04-21T19:41:45.846Z,80.00
2019-04-21T19:44:17.225Z,80.40
2019-04-21T19:46:43.457Z,80.80
2019-04-21T19:49:24.182Z,80.30
2019-04-21T19:51:36.296Z,80.40
2019-04-21T19:54:01.721Z,80.90
2019-04-21T19:56:21.960Z,81.00
2019-04-21T19:58:49.238Z,81.40
2019-04-21T20:01:17.344Z,81.20
2019-04-21T20:03:48.609Z,81.40
2019-04-21T20:06:30.141Z,81.20
2019-04-21T20:09:00.737Z,80.80
2019-04-21T20:11:24.137Z,80.80
2019-04-21T20:14:03.590Z,80.50
2019-04-21T20:16:23.069Z,80.20
2019-04-21T20:18:39.865Z,79.50
2019-04-21T20:21:01.766Z,79.00
2019-04-21T20:23:32.682Z,78.30
2019-04-21T20:26:01.162Z,79.00
2019-04-21T20:28:38.833Z,77.60
2019-04-21T20:31:17.639Z,77.40
2019-04-21T20:36:12.013Z,77.10
2019-04-21T20:38:30.147Z,76.80
2019-04-21T20:40:50.931Z,76.70
2019-04-21T20:43:30.931Z,76.50
2019-04-21T20:45:59.220Z,75.90
2019-04-21T20:48:18.077Z,75.60
2019-04-21T20:50:57.366Z,75.50
2019-04-21T20:53:21.639Z,75.70
2019-04-21T20:55:48.466Z,75.70
2019-04-21T20:58:07.852Z,76.80
2019-04-21T21:01:04.221Z,77.80
2019-04-21T21:03:17.837Z,78.70
2019-04-21T21:05:37.573Z,80.00
2019-04-21T21:08:14.927Z,80.50
2019-04-21T21:10:36.955Z,80.70
2019-04-21T21:13:14.526Z,81.40
2019-04-21T21:15:32.377Z,82.40
2019-04-21T21:18:05.825Z,83.10
2019-04-21T21:20:30.994Z,84.00
2019-04-21T21:22:55.374Z,85.10
2019-04-21T21:25:35.316Z,86.10
2019-04-21T21:27:48.250Z,87.20
2019-04-21T21:30:18.385Z,87.80
2019-04-21T21:32:53.067Z,88.40
2019-04-21T21:35:17.552Z,88.80
2019-04-21T21:37:49.000Z,88.90
2019-04-21T21:40:18.683Z,89.00
2019-04-21T21:42:30.517Z,89.20
2019-04-21T21:45:00.764Z,89.40
2019-04-21T21:47:39.447Z,89.20
2019-04-21T21:50:02.538Z,89.40
2019-04-21T21:52:31.412Z,89.30
2019-04-21T21:54:45.619Z,89.10
2019-04-21T21:57:12.395Z,89.00
2019-04-21T21:59:40.432Z,89.10
2019-04-21T22:02:09.372Z,88.60
2019-04-21T22:04:37.256Z,88.60
2019-04-21T22:07:07.293Z,88.30
2019-04-21T22:09:32.272Z,87.80
2019-04-21T22:12:02.806Z,87.50
2019-04-21T22:14:34.055Z,87.30
2019-04-21T22:17:10.683Z,87.40
2019-04-21T22:19:48.897Z,87.10
2019-04-21T22:22:09.259Z,86.90
2019-04-21T22:24:34.958Z,86.30
2019-04-21T22:26:47.354Z,86.20
2019-04-21T22:29:13.836Z,86.00
2019-04-21T22:31:41.568Z,85.80
2019-04-21T22:34:12.206Z,85.70
2019-04-21T22:36:48.809Z,85.40
2019-04-21T22:39:23.827Z,85.50
2019-04-21T22:41:41.207Z,84.70
2019-04-21T22:44:03.083Z,84.40
2019-04-21T22:46:30.573Z,84.30
2019-04-21T22:49:03.152Z,84.00
2019-04-21T22:51:34.840Z,83.40
2019-04-21T22:53:55.764Z,82.60
2019-04-21T22:56:26.852Z,82.40
2019-04-21T22:58:50.011Z,82.70
2019-04-21T23:01:17.763Z,82.80
2019-04-21T23:03:49.203Z,81.20
2019-04-21T23:06:17.895Z,79.90
2019-04-21T23:08:45.228Z,79.70
2019-04-21T23:11:12.276Z,79.80
2019-04-21T23:13:38.640Z,80.10
2019-04-21T23:16:06.320Z,81.00
2019-04-21T23:18:46.386Z,81.20
2019-04-21T23:21:13.550Z,81.80
2019-04-21T23:23:52.890Z,82.20
2019-04-21T23:26:18.224Z,82.40
2019-04-21T23:28:49.063Z,82.30
2019-04-21T23:31:15.454Z,82.50
2019-04-21T23:33:22.090Z,83.20
2019-04-21T23:35:53.257Z,83.40
2019-04-21T23:38:26.513Z,82.80
2019-04-21T23:40:51.684Z,82.40
2019-04-21T23:43:17.236Z,82.10
2019-04-21T23:45:44.598Z,82.50
2019-04-21T23:48:23.308Z,82.20
2019-04-21T23:50:48.233Z,82.60
2019-04-21T23:53:05.649Z,83.00
2019-04-21T23:55:32.026Z,83.50
2019-04-21T23:58:09.422Z,83.30
